sensor_id;sensor_type;location;lat;lon;timestamp;P1;durP1;ratioP1;P2;durP2;ratioP2
54191;SDS011;40101;53.002;6.488;2022-09-09T00:01:51;15.00;;;10.63;;
54191;SDS011;40101;53.002;6.488;2022-09-09T00:07:06;13.63;;;9.43;;
54191;SDS011;40101;53.002;6.488;2022-09-09T00:12:11;13.27;;;10.20;;
54191;SDS011;40101;53.002;6.488;2022-09-09T00:20:21;12.77;;;9.70;;
54191;SDS011;40101;53.002;6.488;2022-09-09T00:23:43;15.88;;;9.18;;
54191;SDS011;40101;53.002;6.488;2022-09-09T00:26:02;15.68;;;9.15;;
54191;SDS011;40101;53.002;6.488;2022-09-09T00:28:46;11.88;;;8.52;;
54191;SDS011;40101;53.002;6.488;2022-09-09T00:31:23;13.60;;;8.90;;
54191;SDS011;40101;53.002;6.488;2022-09-09T00:33:52;16.63;;;9.93;;
54191;SDS011;40101;53.002;6.488;2022-09-09T00:36:21;11.52;;;9.25;;
54191;SDS011;40101;53.002;6.488;2022-09-09T00:38:51;18.05;;;9.88;;
54191;SDS011;40101;53.002;6.488;2022-09-09T00:47:09;15.02;;;9.60;;
54191;SDS011;40101;53.002;6.488;2022-09-09T00:52:30;12.55;;;8.52;;
54191;SDS011;40101;53.002;6.488;2022-09-09T00:55:28;13.55;;;8.02;;
54191;SDS011;40101;53.002;6.488;2022-09-09T00:58:08;16.13;;;9.50;;
54191;SDS011;40101;53.002;6.488;2022-09-09T01:00:42;15.82;;;9.30;;
54191;SDS011;40101;53.002;6.488;2022-09-09T01:03:22;14.00;;;8.70;;
54191;SDS011;40101;53.002;6.488;2022-09-09T01:06:02;13.10;;;8.93;;
54191;SDS011;40101;53.002;6.488;2022-09-09T01:16:54;15.27;;;9.30;;
54191;SDS011;40101;53.002;6.488;2022-09-09T01:19:57;15.55;;;9.60;;
54191;SDS011;40101;53.002;6.488;2022-09-09T01:28:08;23.63;;;10.60;;
54191;SDS011;40101;53.002;6.488;2022-09-09T01:30:38;13.93;;;10.25;;
54191;SDS011;40101;53.002;6.488;2022-09-09T01:33:07;15.13;;;10.02;;
54191;SDS011;40101;53.002;6.488;2022-09-09T01:38:20;12.57;;;9.52;;
54191;SDS011;40101;53.002;6.488;2022-09-09T01:40:47;14.32;;;10.25;;
54191;SDS011;40101;53.002;6.488;2022-09-09T01:43:14;19.95;;;10.45;;
54191;SDS011;40101;53.002;6.488;2022-09-09T01:45:40;14.73;;;9.63;;
54191;SDS011;40101;53.002;6.488;2022-09-09T01:48:09;15.02;;;9.13;;
54191;SDS011;40101;53.002;6.488;2022-09-09T01:50:35;13.68;;;9.45;;
54191;SDS011;40101;53.002;6.488;2022-09-09T01:53:01;16.17;;;10.00;;
54191;SDS011;40101;53.002;6.488;2022-09-09T01:55:38;15.02;;;9.40;;
54191;SDS011;40101;53.002;6.488;2022-09-09T02:03:53;16.80;;;9.02;;
54191;SDS011;40101;53.002;6.488;2022-09-09T02:09:03;14.63;;;9.20;;
54191;SDS011;40101;53.002;6.488;2022-09-09T02:11:30;15.48;;;8.93;;
54191;SDS011;40101;53.002;6.488;2022-09-09T02:14:01;17.40;;;10.38;;
54191;SDS011;40101;53.002;6.488;2022-09-09T02:21:41;15.80;;;9.90;;
54191;SDS011;40101;53.002;6.488;2022-09-09T02:24:09;14.95;;;8.65;;
54191;SDS011;40101;53.002;6.488;2022-09-09T02:26:37;14.20;;;8.68;;
54191;SDS011;40101;53.002;6.488;2022-09-09T02:29:08;14.27;;;8.82;;
54191;SDS011;40101;53.002;6.488;2022-09-09T02:31:39;13.70;;;8.55;;
54191;SDS011;40101;53.002;6.488;2022-09-09T02:34:06;11.00;;;9.18;;
54191;SDS011;40101;53.002;6.488;2022-09-09T02:36:36;12.82;;;8.65;;
54191;SDS011;40101;53.002;6.488;2022-09-09T02:39:05;13.60;;;8.18;;
54191;SDS011;40101;53.002;6.488;2022-09-09T02:41:34;10.68;;;7.22;;
54191;SDS011;40101;53.002;6.488;2022-09-09T02:44:01;11.98;;;7.80;;
54191;SDS011;40101;53.002;6.488;2022-09-09T02:49:44;10.68;;;8.07;;
54191;SDS011;40101;53.002;6.488;2022-09-09T02:58:02;11.82;;;7.93;;
54191;SDS011;40101;53.002;6.488;2022-09-09T03:00:31;9.55;;;7.72;;
54191;SDS011;40101;53.002;6.488;2022-09-09T03:02:57;18.40;;;7.85;;
54191;SDS011;40101;53.002;6.488;2022-09-09T03:05:23;14.98;;;7.90;;
54191;SDS011;40101;53.002;6.488;2022-09-09T03:07:49;15.30;;;7.53;;
54191;SDS011;40101;53.002;6.488;2022-09-09T03:10:15;14.27;;;7.07;;
54191;SDS011;40101;53.002;6.488;2022-09-09T03:12:42;9.95;;;6.32;;
54191;SDS011;40101;53.002;6.488;2022-09-09T03:15:08;10.38;;;7.00;;
54191;SDS011;40101;53.002;6.488;2022-09-09T03:17:34;12.27;;;6.95;;
54191;SDS011;40101;53.002;6.488;2022-09-09T03:20:01;13.23;;;5.45;;
54191;SDS011;40101;53.002;6.488;2022-09-09T03:22:28;13.25;;;5.78;;
54191;SDS011;40101;53.002;6.488;2022-09-09T03:24:53;12.32;;;5.50;;
54191;SDS011;40101;53.002;6.488;2022-09-09T03:27:19;7.80;;;5.03;;
54191;SDS011;40101;53.002;6.488;2022-09-09T03:29:45;10.05;;;5.63;;
54191;SDS011;40101;53.002;6.488;2022-09-09T03:32:11;14.00;;;6.80;;
54191;SDS011;40101;53.002;6.488;2022-09-09T03:34:37;12.38;;;6.65;;
54191;SDS011;40101;53.002;6.488;2022-09-09T03:37:05;12.18;;;6.30;;
54191;SDS011;40101;53.002;6.488;2022-09-09T03:39:31;11.60;;;6.43;;
54191;SDS011;40101;53.002;6.488;2022-09-09T03:41:56;13.75;;;6.32;;
54191;SDS011;40101;53.002;6.488;2022-09-09T03:44:22;10.77;;;5.85;;
54191;SDS011;40101;53.002;6.488;2022-09-09T03:46:48;10.52;;;5.22;;
54191;SDS011;40101;53.002;6.488;2022-09-09T03:49:13;9.35;;;5.32;;
54191;SDS011;40101;53.002;6.488;2022-09-09T03:51:40;11.57;;;5.93;;
54191;SDS011;40101;53.002;6.488;2022-09-09T03:54:06;10.90;;;5.63;;
54191;SDS011;40101;53.002;6.488;2022-09-09T03:56:35;8.20;;;6.55;;
54191;SDS011;40101;53.002;6.488;2022-09-09T03:59:01;10.07;;;6.18;;
54191;SDS011;40101;53.002;6.488;2022-09-09T04:01:27;10.48;;;6.22;;
54191;SDS011;40101;53.002;6.488;2022-09-09T04:03:53;11.88;;;6.68;;
54191;SDS011;40101;53.002;6.488;2022-09-09T04:06:23;10.75;;;6.63;;
54191;SDS011;40101;53.002;6.488;2022-09-09T04:08:49;10.30;;;6.55;;
54191;SDS011;40101;53.002;6.488;2022-09-09T04:11:15;9.25;;;6.80;;
54191;SDS011;40101;53.002;6.488;2022-09-09T04:13:41;12.48;;;7.50;;
54191;SDS011;40101;53.002;6.488;2022-09-09T04:16:07;12.50;;;7.90;;
54191;SDS011;40101;53.002;6.488;2022-09-09T04:18:35;14.57;;;7.93;;
54191;SDS011;40101;53.002;6.488;2022-09-09T04:21:01;11.45;;;7.28;;
54191;SDS011;40101;53.002;6.488;2022-09-09T04:23:28;8.80;;;7.38;;
54191;SDS011;40101;53.002;6.488;2022-09-09T04:25:55;10.60;;;7.35;;
54191;SDS011;40101;53.002;6.488;2022-09-09T04:28:22;14.73;;;8.20;;
54191;SDS011;40101;53.002;6.488;2022-09-09T04:30:50;14.13;;;8.30;;
54191;SDS011;40101;53.002;6.488;2022-09-09T04:33:17;13.20;;;8.48;;
54191;SDS011;40101;53.002;6.488;2022-09-09T04:35:46;12.15;;;8.00;;
54191;SDS011;40101;53.002;6.488;2022-09-09T04:38:14;15.25;;;9.18;;
54191;SDS011;40101;53.002;6.488;2022-09-09T04:40:42;16.08;;;8.55;;
54191;SDS011;40101;53.002;6.488;2022-09-09T04:43:12;12.80;;;8.50;;
54191;SDS011;40101;53.002;6.488;2022-09-09T04:45:39;15.65;;;8.90;;
54191;SDS011;40101;53.002;6.488;2022-09-09T04:48:05;13.98;;;8.98;;
54191;SDS011;40101;53.002;6.488;2022-09-09T04:50:32;12.98;;;8.82;;
54191;SDS011;40101;53.002;6.488;2022-09-09T04:53:01;16.63;;;9.70;;
54191;SDS011;40101;53.002;6.488;2022-09-09T04:55:27;16.98;;;9.43;;
54191;SDS011;40101;53.002;6.488;2022-09-09T04:57:55;19.67;;;10.75;;
54191;SDS011;40101;53.002;6.488;2022-09-09T05:00:21;16.13;;;9.95;;
54191;SDS011;40101;53.002;6.488;2022-09-09T05:02:47;18.48;;;9.95;;
54191;SDS011;40101;53.002;6.488;2022-09-09T05:05:13;16.65;;;10.60;;
54191;SDS011;40101;53.002;6.488;2022-09-09T05:07:38;19.38;;;11.55;;
54191;SDS011;40101;53.002;6.488;2022-09-09T05:10:04;16.10;;;10.90;;
54191;SDS011;40101;53.002;6.488;2022-09-09T05:12:30;18.67;;;12.48;;
54191;SDS011;40101;53.002;6.488;2022-09-09T05:14:57;22.13;;;11.48;;
54191;SDS011;40101;53.002;6.488;2022-09-09T05:17:23;20.33;;;10.75;;
54191;SDS011;40101;53.002;6.488;2022-09-09T05:19:49;19.98;;;11.82;;
54191;SDS011;40101;53.002;6.488;2022-09-09T05:22:18;18.23;;;11.40;;
54191;SDS011;40101;53.002;6.488;2022-09-09T05:24:45;24.02;;;12.98;;
54191;SDS011;40101;53.002;6.488;2022-09-09T05:27:11;20.15;;;12.18;;
54191;SDS011;40101;53.002;6.488;2022-09-09T05:29:37;18.05;;;12.43;;
54191;SDS011;40101;53.002;6.488;2022-09-09T05:32:03;19.42;;;12.05;;
54191;SDS011;40101;53.002;6.488;2022-09-09T05:34:29;20.83;;;11.63;;
54191;SDS011;40101;53.002;6.488;2022-09-09T05:36:55;19.67;;;11.93;;
54191;SDS011;40101;53.002;6.488;2022-09-09T05:39:20;19.88;;;10.85;;
54191;SDS011;40101;53.002;6.488;2022-09-09T05:41:46;17.15;;;10.93;;
54191;SDS011;40101;53.002;6.488;2022-09-09T05:44:12;19.20;;;11.45;;
54191;SDS011;40101;53.002;6.488;2022-09-09T05:46:38;15.10;;;9.73;;
54191;SDS011;40101;53.002;6.488;2022-09-09T05:49:04;18.80;;;12.15;;
54191;SDS011;40101;53.002;6.488;2022-09-09T05:51:31;14.13;;;11.02;;
54191;SDS011;40101;53.002;6.488;2022-09-09T05:53:56;21.40;;;11.40;;
54191;SDS011;40101;53.002;6.488;2022-09-09T05:56:26;18.45;;;10.60;;
54191;SDS011;40101;53.002;6.488;2022-09-09T05:58:53;18.92;;;11.93;;
54191;SDS011;40101;53.002;6.488;2022-09-09T06:01:24;14.85;;;9.77;;
54191;SDS011;40101;53.002;6.488;2022-09-09T06:03:54;12.55;;;9.15;;
54191;SDS011;40101;53.002;6.488;2022-09-09T06:06:21;13.23;;;9.07;;
54191;SDS011;40101;53.002;6.488;2022-09-09T06:08:53;13.73;;;9.70;;
54191;SDS011;40101;53.002;6.488;2022-09-09T06:11:23;16.30;;;10.40;;
54191;SDS011;40101;53.002;6.488;2022-09-09T06:13:51;18.75;;;9.82;;
54191;SDS011;40101;53.002;6.488;2022-09-09T06:16:19;16.05;;;9.38;;
54191;SDS011;40101;53.002;6.488;2022-09-09T06:18:48;13.63;;;10.45;;
54191;SDS011;40101;53.002;6.488;2022-09-09T06:21:17;18.95;;;10.43;;
54191;SDS011;40101;53.002;6.488;2022-09-09T06:23:44;13.30;;;9.82;;
54191;SDS011;40101;53.002;6.488;2022-09-09T06:26:14;12.48;;;9.38;;
54191;SDS011;40101;53.002;6.488;2022-09-09T06:28:45;15.25;;;8.65;;
54191;SDS011;40101;53.002;6.488;2022-09-09T06:31:13;11.25;;;8.43;;
54191;SDS011;40101;53.002;6.488;2022-09-09T06:33:42;11.45;;;8.23;;
54191;SDS011;40101;53.002;6.488;2022-09-09T06:36:13;16.35;;;9.07;;
54191;SDS011;40101;53.002;6.488;2022-09-09T06:38:41;11.90;;;9.07;;
54191;SDS011;40101;53.002;6.488;2022-09-09T06:41:07;10.60;;;7.93;;
54191;SDS011;40101;53.002;6.488;2022-09-09T06:43:34;9.95;;;8.68;;
54191;SDS011;40101;53.002;6.488;2022-09-09T06:46:02;14.93;;;8.45;;
54191;SDS011;40101;53.002;6.488;2022-09-09T06:48:30;15.45;;;8.75;;
54191;SDS011;40101;53.002;6.488;2022-09-09T06:53:31;10.83;;;8.07;;
54191;SDS011;40101;53.002;6.488;2022-09-09T06:56:45;12.43;;;8.77;;
54191;SDS011;40101;53.002;6.488;2022-09-09T06:58:51;10.27;;;7.13;;
54191;SDS011;40101;53.002;6.488;2022-09-09T07:01:21;14.32;;;8.90;;
54191;SDS011;40101;53.002;6.488;2022-09-09T07:03:50;12.35;;;7.93;;
54191;SDS011;40101;53.002;6.488;2022-09-09T07:06:18;9.50;;;7.90;;
54191;SDS011;40101;53.002;6.488;2022-09-09T07:08:52;14.93;;;8.40;;
54191;SDS011;40101;53.002;6.488;2022-09-09T07:11:20;12.57;;;8.65;;
54191;SDS011;40101;53.002;6.488;2022-09-09T07:13:48;10.80;;;7.72;;
54191;SDS011;40101;53.002;6.488;2022-09-09T07:16:16;13.95;;;8.15;;
54191;SDS011;40101;53.002;6.488;2022-09-09T07:18:43;8.75;;;7.78;;
54191;SDS011;40101;53.002;6.488;2022-09-09T07:21:13;11.23;;;6.80;;
54191;SDS011;40101;53.002;6.488;2022-09-09T07:23:39;10.60;;;6.88;;
54191;SDS011;40101;53.002;6.488;2022-09-09T07:26:17;10.82;;;7.90;;
54191;SDS011;40101;53.002;6.488;2022-09-09T07:28:44;10.75;;;6.68;;
54191;SDS011;40101;53.002;6.488;2022-09-09T07:31:13;12.43;;;8.13;;
54191;SDS011;40101;53.002;6.488;2022-09-09T07:33:41;11.07;;;6.22;;
54191;SDS011;40101;53.002;6.488;2022-09-09T07:36:09;6.80;;;6.07;;
54191;SDS011;40101;53.002;6.488;2022-09-09T07:38:38;8.80;;;6.85;;
54191;SDS011;40101;53.002;6.488;2022-09-09T07:41:15;6.47;;;5.32;;
54191;SDS011;40101;53.002;6.488;2022-09-09T07:43:44;8.75;;;5.97;;
54191;SDS011;40101;53.002;6.488;2022-09-09T07:46:12;6.03;;;4.88;;
54191;SDS011;40101;53.002;6.488;2022-09-09T07:48:48;7.65;;;5.07;;
54191;SDS011;40101;53.002;6.488;2022-09-09T07:51:20;6.40;;;4.40;;
54191;SDS011;40101;53.002;6.488;2022-09-09T07:54:00;6.85;;;4.13;;
54191;SDS011;40101;53.002;6.488;2022-09-09T07:56:28;6.40;;;4.47;;
54191;SDS011;40101;53.002;6.488;2022-09-09T07:58:55;5.85;;;3.75;;
54191;SDS011;40101;53.002;6.488;2022-09-09T08:01:25;9.63;;;4.40;;
54191;SDS011;40101;53.002;6.488;2022-09-09T08:03:53;5.65;;;3.75;;
54191;SDS011;40101;53.002;6.488;2022-09-09T08:06:27;6.35;;;3.67;;
54191;SDS011;40101;53.002;6.488;2022-09-09T08:08:54;7.25;;;3.65;;
54191;SDS011;40101;53.002;6.488;2022-09-09T08:11:21;8.63;;;3.95;;
54191;SDS011;40101;53.002;6.488;2022-09-09T08:13:48;6.30;;;4.13;;
54191;SDS011;40101;53.002;6.488;2022-09-09T08:16:23;8.18;;;4.30;;
54191;SDS011;40101;53.002;6.488;2022-09-09T08:18:50;10.32;;;4.82;;
54191;SDS011;40101;53.002;6.488;2022-09-09T08:21:18;7.50;;;4.05;;
54191;SDS011;40101;53.002;6.488;2022-09-09T08:23:46;6.53;;;3.88;;
54191;SDS011;40101;53.002;6.488;2022-09-09T08:26:16;9.88;;;4.65;;
54191;SDS011;40101;53.002;6.488;2022-09-09T08:28:47;7.05;;;3.97;;
54191;SDS011;40101;53.002;6.488;2022-09-09T08:31:19;6.90;;;4.10;;
54191;SDS011;40101;53.002;6.488;2022-09-09T08:33:47;5.72;;;3.55;;
54191;SDS011;40101;53.002;6.488;2022-09-09T08:36:16;8.90;;;3.95;;
54191;SDS011;40101;53.002;6.488;2022-09-09T08:38:46;6.57;;;3.15;;
54191;SDS011;40101;53.002;6.488;2022-09-09T08:44:28;9.05;;;3.30;;
54191;SDS011;40101;53.002;6.488;2022-09-09T08:47:05;11.45;;;4.05;;
54191;SDS011;40101;53.002;6.488;2022-09-09T08:49:45;9.65;;;4.60;;
54191;SDS011;40101;53.002;6.488;2022-09-09T08:52:49;6.05;;;3.05;;
54191;SDS011;40101;53.002;6.488;2022-09-09T08:55:44;8.68;;;3.40;;
54191;SDS011;40101;53.002;6.488;2022-09-09T08:58:31;10.25;;;3.25;;
54191;SDS011;40101;53.002;6.488;2022-09-09T09:09:11;9.20;;;2.80;;
54191;SDS011;40101;53.002;6.488;2022-09-09T09:11:51;3.30;;;2.00;;
54191;SDS011;40101;53.002;6.488;2022-09-09T09:14:21;7.68;;;2.92;;
54191;SDS011;40101;53.002;6.488;2022-09-09T09:16:53;8.40;;;2.83;;
54191;SDS011;40101;53.002;6.488;2022-09-09T09:19:24;10.48;;;3.60;;
54191;SDS011;40101;53.002;6.488;2022-09-09T09:22:26;7.03;;;2.35;;
54191;SDS011;40101;53.002;6.488;2022-09-09T09:25:05;8.38;;;2.53;;
54191;SDS011;40101;53.002;6.488;2022-09-09T09:30:59;11.80;;;2.55;;
54191;SDS011;40101;53.002;6.488;2022-09-09T09:36:05;5.30;;;2.38;;
54191;SDS011;40101;53.002;6.488;2022-09-09T09:38:33;7.90;;;2.75;;
54191;SDS011;40101;53.002;6.488;2022-09-09T09:41:00;8.75;;;2.35;;
54191;SDS011;40101;53.002;6.488;2022-09-09T09:45:59;6.70;;;1.88;;
54191;SDS011;40101;53.002;6.488;2022-09-09T09:48:26;6.50;;;1.70;;
54191;SDS011;40101;53.002;6.488;2022-09-09T09:50:56;9.82;;;2.42;;
54191;SDS011;40101;53.002;6.488;2022-09-09T09:53:35;9.20;;;2.08;;
54191;SDS011;40101;53.002;6.488;2022-09-09T09:56:03;9.10;;;2.28;;
54191;SDS011;40101;53.002;6.488;2022-09-09T09:58:30;7.45;;;2.38;;
54191;SDS011;40101;53.002;6.488;2022-09-09T10:00:59;10.15;;;2.55;;
54191;SDS011;40101;53.002;6.488;2022-09-09T10:03:29;7.20;;;1.98;;
54191;SDS011;40101;53.002;6.488;2022-09-09T10:05:56;9.40;;;3.00;;
54191;SDS011;40101;53.002;6.488;2022-09-09T10:08:26;8.85;;;2.10;;
54191;SDS011;40101;53.002;6.488;2022-09-09T10:19:31;9.38;;;2.10;;
54191;SDS011;40101;53.002;6.488;2022-09-09T10:27:37;5.45;;;2.13;;
54191;SDS011;40101;53.002;6.488;2022-09-09T10:33:10;9.65;;;2.63;;
54191;SDS011;40101;53.002;6.488;2022-09-09T10:38:45;5.10;;;1.30;;
54191;SDS011;40101;53.002;6.488;2022-09-09T10:41:16;4.95;;;1.55;;
54191;SDS011;40101;53.002;6.488;2022-09-09T10:46:39;7.35;;;1.60;;
54191;SDS011;40101;53.002;6.488;2022-09-09T10:52:32;6.53;;;1.60;;
54191;SDS011;40101;53.002;6.488;2022-09-09T10:55:16;5.10;;;1.40;;
54191;SDS011;40101;53.002;6.488;2022-09-09T11:02:52;3.60;;;1.10;;
54191;SDS011;40101;53.002;6.488;2022-09-09T11:08:09;9.38;;;1.80;;
54191;SDS011;40101;53.002;6.488;2022-09-09T11:13:24;5.57;;;1.30;;
54191;SDS011;40101;53.002;6.488;2022-09-09T11:16:01;8.57;;;1.45;;
54191;SDS011;40101;53.002;6.488;2022-09-09T11:18:49;9.55;;;1.92;;
54191;SDS011;40101;53.002;6.488;2022-09-09T11:21:26;5.07;;;1.25;;
54191;SDS011;40101;53.002;6.488;2022-09-09T11:24:02;6.97;;;1.90;;
54191;SDS011;40101;53.002;6.488;2022-09-09T11:26:39;5.05;;;1.52;;
54191;SDS011;40101;53.002;6.488;2022-09-09T11:31:54;7.55;;;1.50;;
54191;SDS011;40101;53.002;6.488;2022-09-09T11:37:53;5.78;;;1.30;;
54191;SDS011;40101;53.002;6.488;2022-09-09T11:40:39;4.82;;;1.45;;
54191;SDS011;40101;53.002;6.488;2022-09-09T11:43:08;3.95;;;1.45;;
54191;SDS011;40101;53.002;6.488;2022-09-09T11:45:52;7.60;;;1.85;;
54191;SDS011;40101;53.002;6.488;2022-09-09T11:51:25;8.32;;;1.73;;
54191;SDS011;40101;53.002;6.488;2022-09-09T11:56:55;6.03;;;1.30;;
54191;SDS011;40101;53.002;6.488;2022-09-09T12:01:55;4.93;;;1.65;;
54191;SDS011;40101;53.002;6.488;2022-09-09T12:04:53;8.90;;;1.97;;
54191;SDS011;40101;53.002;6.488;2022-09-09T12:09:56;7.63;;;1.60;;
54191;SDS011;40101;53.002;6.488;2022-09-09T12:12:32;6.45;;;1.77;;
54191;SDS011;40101;53.002;6.488;2022-09-09T12:17:51;4.07;;;1.30;;
54191;SDS011;40101;53.002;6.488;2022-09-09T12:22:58;4.50;;;1.20;;
54191;SDS011;40101;53.002;6.488;2022-09-09T12:30:53;5.97;;;1.38;;
54191;SDS011;40101;53.002;6.488;2022-09-09T12:33:37;3.83;;;1.25;;
54191;SDS011;40101;53.002;6.488;2022-09-09T12:36:11;7.85;;;2.35;;
54191;SDS011;40101;53.002;6.488;2022-09-09T12:38:42;8.75;;;1.45;;
54191;SDS011;40101;53.002;6.488;2022-09-09T12:41:22;4.25;;;1.10;;
54191;SDS011;40101;53.002;6.488;2022-09-09T12:43:49;5.53;;;1.52;;
54191;SDS011;40101;53.002;6.488;2022-09-09T12:49:02;4.47;;;1.45;;
54191;SDS011;40101;53.002;6.488;2022-09-09T12:51:30;5.93;;;1.40;;
54191;SDS011;40101;53.002;6.488;2022-09-09T12:53:57;4.38;;;1.45;;
54191;SDS011;40101;53.002;6.488;2022-09-09T12:56:25;6.63;;;2.08;;
54191;SDS011;40101;53.002;6.488;2022-09-09T12:58:59;2.92;;;1.10;;
54191;SDS011;40101;53.002;6.488;2022-09-09T13:01:31;8.98;;;1.60;;
54191;SDS011;40101;53.002;6.488;2022-09-09T13:04:00;5.15;;;1.25;;
54191;SDS011;40101;53.002;6.488;2022-09-09T13:06:27;4.32;;;1.55;;
54191;SDS011;40101;53.002;6.488;2022-09-09T13:08:55;3.80;;;1.30;;
54191;SDS011;40101;53.002;6.488;2022-09-09T13:11:28;3.47;;;0.80;;
54191;SDS011;40101;53.002;6.488;2022-09-09T13:14:03;4.88;;;1.20;;
54191;SDS011;40101;53.002;6.488;2022-09-09T13:16:30;5.85;;;1.52;;
54191;SDS011;40101;53.002;6.488;2022-09-09T13:19:00;3.03;;;0.77;;
54191;SDS011;40101;53.002;6.488;2022-09-09T13:21:35;6.35;;;1.15;;
54191;SDS011;40101;53.002;6.488;2022-09-09T13:24:04;3.75;;;0.80;;
54191;SDS011;40101;53.002;6.488;2022-09-09T13:26:32;5.55;;;0.95;;
54191;SDS011;40101;53.002;6.488;2022-09-09T13:29:15;2.90;;;0.80;;
54191;SDS011;40101;53.002;6.488;2022-09-09T13:31:43;3.13;;;1.05;;
54191;SDS011;40101;53.002;6.488;2022-09-09T13:34:31;8.25;;;1.58;;
54191;SDS011;40101;53.002;6.488;2022-09-09T13:36:59;4.28;;;1.00;;
54191;SDS011;40101;53.002;6.488;2022-09-09T13:39:27;5.22;;;1.02;;
54191;SDS011;40101;53.002;6.488;2022-09-09T13:41:53;4.00;;;1.00;;
54191;SDS011;40101;53.002;6.488;2022-09-09T13:44:30;4.15;;;1.10;;
54191;SDS011;40101;53.002;6.488;2022-09-09T13:47:16;5.97;;;1.63;;
54191;SDS011;40101;53.002;6.488;2022-09-09T13:49:48;6.05;;;0.93;;
54191;SDS011;40101;53.002;6.488;2022-09-09T13:52:15;4.00;;;0.82;;
54191;SDS011;40101;53.002;6.488;2022-09-09T13:54:42;8.35;;;1.15;;
54191;SDS011;40101;53.002;6.488;2022-09-09T13:57:16;5.75;;;1.17;;
54191;SDS011;40101;53.002;6.488;2022-09-09T13:59:44;4.95;;;1.20;;
54191;SDS011;40101;53.002;6.488;2022-09-09T14:02:10;2.83;;;0.63;;
54191;SDS011;40101;53.002;6.488;2022-09-09T14:04:35;1.73;;;0.40;;
54191;SDS011;40101;53.002;6.488;2022-09-09T14:07:01;1.70;;;0.55;;
54191;SDS011;40101;53.002;6.488;2022-09-09T14:09:28;3.97;;;0.52;;
54191;SDS011;40101;53.002;6.488;2022-09-09T14:11:53;2.75;;;0.70;;
54191;SDS011;40101;53.002;6.488;2022-09-09T14:14:22;1.30;;;0.30;;
54191;SDS011;40101;53.002;6.488;2022-09-09T14:16:48;3.90;;;0.63;;
54191;SDS011;40101;53.002;6.488;2022-09-09T14:19:14;1.30;;;0.50;;
54191;SDS011;40101;53.002;6.488;2022-09-09T14:21:39;1.60;;;0.50;;
54191;SDS011;40101;53.002;6.488;2022-09-09T14:24:05;1.70;;;0.55;;
54191;SDS011;40101;53.002;6.488;2022-09-09T14:26:31;1.52;;;0.65;;
54191;SDS011;40101;53.002;6.488;2022-09-09T14:28:57;2.13;;;0.63;;
54191;SDS011;40101;53.002;6.488;2022-09-09T14:31:25;7.32;;;1.00;;
54191;SDS011;40101;53.002;6.488;2022-09-09T14:33:51;4.47;;;0.98;;
54191;SDS011;40101;53.002;6.488;2022-09-09T14:36:17;3.78;;;0.75;;
54191;SDS011;40101;53.002;6.488;2022-09-09T14:38:43;1.80;;;0.65;;
54191;SDS011;40101;53.002;6.488;2022-09-09T14:41:14;2.03;;;0.80;;
54191;SDS011;40101;53.002;6.488;2022-09-09T14:43:43;1.50;;;0.90;;
54191;SDS011;40101;53.002;6.488;2022-09-09T14:46:11;5.80;;;1.50;;
54191;SDS011;40101;53.002;6.488;2022-09-09T14:48:39;1.60;;;0.75;;
54191;SDS011;40101;53.002;6.488;2022-09-09T14:51:16;2.72;;;1.20;;
54191;SDS011;40101;53.002;6.488;2022-09-09T14:53:43;2.85;;;1.35;;
54191;SDS011;40101;53.002;6.488;2022-09-09T14:56:10;4.38;;;0.93;;
54191;SDS011;40101;53.002;6.488;2022-09-09T14:58:43;3.47;;;1.00;;
54191;SDS011;40101;53.002;6.488;2022-09-09T15:01:13;1.25;;;0.50;;
54191;SDS011;40101;53.002;6.488;2022-09-09T15:03:41;1.95;;;0.50;;
54191;SDS011;40101;53.002;6.488;2022-09-09T15:06:13;1.70;;;0.47;;
54191;SDS011;40101;53.002;6.488;2022-09-09T15:08:43;1.92;;;0.52;;
54191;SDS011;40101;53.002;6.488;2022-09-09T15:11:13;2.55;;;0.70;;
54191;SDS011;40101;53.002;6.488;2022-09-09T15:13:52;1.95;;;1.00;;
54191;SDS011;40101;53.002;6.488;2022-09-09T15:16:27;4.95;;;0.70;;
54191;SDS011;40101;53.002;6.488;2022-09-09T15:18:54;1.88;;;0.50;;
54191;SDS011;40101;53.002;6.488;2022-09-09T15:21:23;3.70;;;0.80;;
54191;SDS011;40101;53.002;6.488;2022-09-09T15:23:53;2.42;;;0.63;;
54191;SDS011;40101;53.002;6.488;2022-09-09T15:26:27;3.75;;;0.82;;
54191;SDS011;40101;53.002;6.488;2022-09-09T15:28:53;6.18;;;0.70;;
54191;SDS011;40101;53.002;6.488;2022-09-09T15:31:20;4.18;;;0.80;;
54191;SDS011;40101;53.002;6.488;2022-09-09T15:33:57;1.98;;;0.50;;
54191;SDS011;40101;53.002;6.488;2022-09-09T15:36:37;2.33;;;1.10;;
54191;SDS011;40101;53.002;6.488;2022-09-09T15:39:05;3.42;;;1.15;;
54191;SDS011;40101;53.002;6.488;2022-09-09T15:41:46;3.88;;;0.90;;
54191;SDS011;40101;53.002;6.488;2022-09-09T15:44:19;2.42;;;0.90;;
54191;SDS011;40101;53.002;6.488;2022-09-09T15:46:45;2.85;;;0.98;;
54191;SDS011;40101;53.002;6.488;2022-09-09T15:49:16;3.45;;;0.90;;
54191;SDS011;40101;53.002;6.488;2022-09-09T15:51:44;2.97;;;0.60;;
54191;SDS011;40101;53.002;6.488;2022-09-09T15:54:12;3.67;;;0.88;;
54191;SDS011;40101;53.002;6.488;2022-09-09T15:56:41;6.22;;;1.00;;
54191;SDS011;40101;53.002;6.488;2022-09-09T15:59:08;6.72;;;1.42;;
54191;SDS011;40101;53.002;6.488;2022-09-09T16:01:34;3.38;;;0.90;;
54191;SDS011;40101;53.002;6.488;2022-09-09T16:04:00;3.72;;;0.70;;
54191;SDS011;40101;53.002;6.488;2022-09-09T16:06:27;4.60;;;1.70;;
54191;SDS011;40101;53.002;6.488;2022-09-09T16:08:54;2.47;;;0.80;;
54191;SDS011;40101;53.002;6.488;2022-09-09T16:11:29;1.45;;;0.80;;
54191;SDS011;40101;53.002;6.488;2022-09-09T16:14:00;4.60;;;0.65;;
54191;SDS011;40101;53.002;6.488;2022-09-09T16:16:28;3.65;;;0.80;;
54191;SDS011;40101;53.002;6.488;2022-09-09T16:18:55;2.53;;;0.80;;
54191;SDS011;40101;53.002;6.488;2022-09-09T16:21:30;6.28;;;1.10;;
54191;SDS011;40101;53.002;6.488;2022-09-09T16:24:01;1.65;;;0.70;;
54191;SDS011;40101;53.002;6.488;2022-09-09T16:26:28;3.35;;;1.02;;
54191;SDS011;40101;53.002;6.488;2022-09-09T16:28:55;1.80;;;0.80;;
54191;SDS011;40101;53.002;6.488;2022-09-09T16:31:23;2.40;;;0.75;;
54191;SDS011;40101;53.002;6.488;2022-09-09T16:33:49;2.65;;;0.77;;
54191;SDS011;40101;53.002;6.488;2022-09-09T16:36:17;1.23;;;0.73;;
54191;SDS011;40101;53.002;6.488;2022-09-09T16:38:45;2.20;;;0.77;;
54191;SDS011;40101;53.002;6.488;2022-09-09T16:41:11;4.63;;;1.35;;
54191;SDS011;40101;53.002;6.488;2022-09-09T16:43:38;3.35;;;0.90;;
54191;SDS011;40101;53.002;6.488;2022-09-09T16:46:38;2.58;;;0.88;;
54191;SDS011;40101;53.002;6.488;2022-09-09T16:48:59;3.60;;;1.23;;
54191;SDS011;40101;53.002;6.488;2022-09-09T16:51:30;1.65;;;0.65;;
54191;SDS011;40101;53.002;6.488;2022-09-09T16:53:59;2.63;;;0.70;;
54191;SDS011;40101;53.002;6.488;2022-09-09T16:56:29;2.75;;;0.70;;
54191;SDS011;40101;53.002;6.488;2022-09-09T16:59:01;3.38;;;1.38;;
54191;SDS011;40101;53.002;6.488;2022-09-09T17:01:29;2.42;;;1.00;;
54191;SDS011;40101;53.002;6.488;2022-09-09T17:03:59;3.35;;;0.98;;
54191;SDS011;40101;53.002;6.488;2022-09-09T17:06:26;2.53;;;0.88;;
54191;SDS011;40101;53.002;6.488;2022-09-09T17:08:56;1.13;;;0.80;;
54191;SDS011;40101;53.002;6.488;2022-09-09T17:11:23;2.67;;;0.90;;
54191;SDS011;40101;53.002;6.488;2022-09-09T17:13:49;2.42;;;0.98;;
54191;SDS011;40101;53.002;6.488;2022-09-09T17:16:18;1.60;;;0.93;;
54191;SDS011;40101;53.002;6.488;2022-09-09T17:18:48;3.10;;;1.23;;
54191;SDS011;40101;53.002;6.488;2022-09-09T17:21:16;2.03;;;0.88;;
54191;SDS011;40101;53.002;6.488;2022-09-09T17:23:45;1.98;;;1.23;;
54191;SDS011;40101;53.002;6.488;2022-09-09T17:26:13;4.00;;;1.25;;
54191;SDS011;40101;53.002;6.488;2022-09-09T17:28:41;3.38;;;1.02;;